createdAt,value
2018-03-02T00:00:36.223Z,37.90
2018-03-02T00:01:36.458Z,36.90
2018-03-02T00:02:36.701Z,39.00
2018-03-02T00:03:36.941Z,38.40
2018-03-02T00:04:37.182Z,40.00
2018-03-02T00:05:37.424Z,37.30
2018-03-02T00:06:37.670Z,36.70
2018-03-02T00:07:37.916Z,37.10
2018-03-02T00:17:54.475Z,39.40
2018-03-02T00:18:54.714Z,39.10
2018-03-02T00:19:54.961Z,36.10
2018-03-02T00:20:55.208Z,40.00
2018-03-02T00:21:55.446Z,40.50
2018-03-02T00:22:55.685Z,37.70
2018-03-02T00:23:55.926Z,36.40
2018-03-02T00:24:56.164Z,40.10
2018-03-02T00:25:56.406Z,38.70
2018-03-02T00:26:56.646Z,38.90
2018-03-02T00:27:56.894Z,40.90
2018-03-02T00:28:57.145Z,40.60
2018-03-02T00:29:57.365Z,39.90
2018-03-02T00:30:57.610Z,40.00
2018-03-02T00:31:57.848Z,39.30
2018-03-02T00:32:58.087Z,41.80
2018-03-02T00:33:58.329Z,41.10
2018-03-02T00:34:58.575Z,40.60
2018-03-02T00:35:58.816Z,39.00
2018-03-02T00:36:59.061Z,38.90
2018-03-02T00:37:59.304Z,38.90
2018-03-02T00:38:59.545Z,39.20
2018-03-02T00:39:59.790Z,38.90
2018-03-02T00:41:00.035Z,37.30
2018-03-02T00:42:00.278Z,41.90
2018-03-02T00:43:00.556Z,38.90
2018-03-02T00:44:00.766Z,41.50
2018-03-02T00:45:01.017Z,38.60
2018-03-02T00:46:01.271Z,38.60
2018-03-02T00:47:01.512Z,38.70
2018-03-02T00:48:01.759Z,40.90
2018-03-02T00:49:02.004Z,38.70
2018-03-02T00:50:02.242Z,39.90
2018-03-02T00:51:02.484Z,41.00
2018-03-02T00:52:02.728Z,38.30
2018-03-02T00:53:02.972Z,45.10
2018-03-02T00:54:03.214Z,39.80
2018-03-02T00:55:03.452Z,40.70
2018-03-02T00:56:03.692Z,39.30
2018-03-02T00:57:03.937Z,43.50
2018-03-02T00:58:04.179Z,38.40
2018-03-02T00:59:04.423Z,40.50
2018-03-02T01:00:04.667Z,41.10
2018-03-02T01:01:04.907Z,42.10
2018-03-02T01:02:05.146Z,40.60
2018-03-02T01:03:05.384Z,42.30
2018-03-02T01:04:05.630Z,47.90
2018-03-02T01:05:05.869Z,43.00
2018-03-02T01:06:06.114Z,42.70
2018-03-02T01:07:06.355Z,40.90
2018-03-02T01:08:06.595Z,43.80
2018-03-02T01:09:06.840Z,40.30
2018-03-02T01:10:07.084Z,40.60
2018-03-02T01:11:07.326Z,40.60
2018-03-02T01:12:07.568Z,41.50
2018-03-02T01:13:07.811Z,40.20
2018-03-02T01:14:08.057Z,42.10
2018-03-02T01:15:08.300Z,43.00
2018-03-02T01:16:08.545Z,43.00
2018-03-02T01:17:08.778Z,41.20
2018-03-02T01:18:09.023Z,41.50
2018-03-02T01:19:09.265Z,48.90
2018-03-02T01:20:09.529Z,44.10
2018-03-02T01:21:09.731Z,42.00
2018-03-02T01:22:09.974Z,42.00
2018-03-02T01:23:10.219Z,42.50
2018-03-02T01:24:10.454Z,44.40
2018-03-02T01:25:10.690Z,43.50
2018-03-02T01:26:10.930Z,40.80
2018-03-02T01:27:11.173Z,41.60
2018-03-02T01:28:11.419Z,43.00
2018-03-02T01:29:11.651Z,46.20
2018-03-02T01:30:11.901Z,41.50
2018-03-02T01:31:12.142Z,45.50
2018-03-02T01:32:12.387Z,43.40
2018-03-02T01:33:12.636Z,42.90
2018-03-02T01:34:12.877Z,41.20
2018-03-02T01:35:13.121Z,43.60
2018-03-02T01:36:13.360Z,40.20
2018-03-02T01:37:13.596Z,43.20
2018-03-02T01:38:13.839Z,42.30
2018-03-02T01:39:14.083Z,42.50
2018-03-02T01:40:14.327Z,41.40
2018-03-02T01:41:14.570Z,40.30
2018-03-02T01:42:14.809Z,42.60
2018-03-02T01:43:15.050Z,43.80
2018-03-02T01:44:15.294Z,43.80
2018-03-02T01:45:15.533Z,44.00
2018-03-02T01:46:15.776Z,40.40
2018-03-02T01:47:16.016Z,43.10
2018-03-02T01:48:16.260Z,43.00
2018-03-02T01:49:16.501Z,43.20
2018-03-02T01:50:16.742Z,43.20
2018-03-02T01:51:16.980Z,43.10
2018-03-02T01:52:17.221Z,43.70
2018-03-02T01:53:17.462Z,43.30
2018-03-02T01:54:17.708Z,44.00
2018-03-02T01:55:17.954Z,44.70
2018-03-02T01:56:18.199Z,40.70
2018-03-02T01:57:18.441Z,43.90
2018-03-02T01:58:18.682Z,44.00
2018-03-02T01:59:18.920Z,41.80
2018-03-02T02:00:19.158Z,46.00
2018-03-02T02:01:19.400Z,44.80
2018-03-02T02:02:19.640Z,40.10
2018-03-02T02:03:19.885Z,45.40
2018-03-02T02:04:20.133Z,41.50
2018-03-02T02:05:20.376Z,46.30
2018-03-02T02:06:20.620Z,41.20
2018-03-02T02:07:20.866Z,45.00
2018-03-02T02:08:21.110Z,41.70
2018-03-02T02:09:21.349Z,46.90
2018-03-02T02:10:21.595Z,41.40
2018-03-02T02:11:21.834Z,40.60
2018-03-02T02:12:22.077Z,44.50
2018-03-02T02:13:22.323Z,44.70
2018-03-02T02:14:22.565Z,44.00
2018-03-02T02:15:22.802Z,41.80
2018-03-02T02:16:23.043Z,44.20
2018-03-02T02:17:23.283Z,43.00
2018-03-02T02:18:23.523Z,41.30
2018-03-02T02:19:23.769Z,45.70
2018-03-02T02:20:24.011Z,45.80
2018-03-02T02:21:24.250Z,42.50
2018-03-02T02:22:24.502Z,44.80
2018-03-02T02:23:24.737Z,44.80
2018-03-02T02:24:25.008Z,44.00
2018-03-02T02:25:25.217Z,44.70
2018-03-02T02:26:25.469Z,43.30
2018-03-02T02:27:25.709Z,45.90
2018-03-02T02:28:25.935Z,42.50
2018-03-02T02:29:26.178Z,44.50
2018-03-02T02:30:26.416Z,43.70
2018-03-02T02:31:26.656Z,46.50
2018-03-02T02:32:26.901Z,43.50
2018-03-02T02:33:27.140Z,43.70
2018-03-02T02:34:27.381Z,43.80
2018-03-02T02:35:27.621Z,42.80
2018-03-02T02:36:27.859Z,43.60
2018-03-02T02:37:28.108Z,44.70
2018-03-02T02:38:28.348Z,45.70
2018-03-02T02:39:28.588Z,45.60
2018-03-02T02:40:28.828Z,44.20
2018-03-02T02:41:29.071Z,44.10
2018-03-02T02:42:29.297Z,44.20
2018-03-02T02:43:29.538Z,47.50
2018-03-02T02:44:29.779Z,47.90
2018-03-02T02:45:30.025Z,47.00
2018-03-02T02:46:30.258Z,41.80
2018-03-02T02:47:30.499Z,44.30
2018-03-02T02:48:30.733Z,46.10
2018-03-02T02:49:30.970Z,43.80
2018-03-02T02:50:31.215Z,44.20
2018-03-02T02:51:31.453Z,46.10
2018-03-02T02:52:31.698Z,44.80
2018-03-02T02:53:31.941Z,44.30
2018-03-02T02:54:32.176Z,46.60
2018-03-02T02:55:32.416Z,44.70
2018-03-02T02:56:32.657Z,44.90
2018-03-02T02:57:32.900Z,49.80
2018-03-02T02:58:33.135Z,45.70
2018-03-02T02:59:33.378Z,47.00
2018-03-02T03:00:33.618Z,46.40
2018-03-02T03:01:33.857Z,46.70
2018-03-02T03:02:34.095Z,45.30
2018-03-02T03:03:34.338Z,48.70
2018-03-02T03:04:34.574Z,45.30
2018-03-02T03:05:34.818Z,47.00
2018-03-02T03:06:35.063Z,44.70
2018-03-02T03:07:35.299Z,43.60
2018-03-02T03:08:35.537Z,46.00
2018-03-02T03:09:35.782Z,46.10
2018-03-02T03:10:36.022Z,47.30
2018-03-02T03:11:36.263Z,48.40
2018-03-02T03:12:36.503Z,44.00
2018-03-02T03:13:36.745Z,45.30
2018-03-02T03:14:36.985Z,44.60
2018-03-02T03:15:37.226Z,47.70
2018-03-02T03:16:37.466Z,47.80
2018-03-02T03:17:37.709Z,46.60
2018-03-02T03:18:37.951Z,48.30
2018-03-02T03:19:38.190Z,44.80
2018-03-02T03:20:38.441Z,47.40
2018-03-02T03:21:38.667Z,46.00
2018-03-02T03:22:38.923Z,45.20
2018-03-02T03:23:39.180Z,45.60
2018-03-02T03:24:39.417Z,47.20
2018-03-02T03:25:39.654Z,48.20
2018-03-02T03:26:39.896Z,48.10
2018-03-02T03:27:40.135Z,45.50
2018-03-02T03:28:40.378Z,47.50
2018-03-02T03:29:40.621Z,47.00
2018-03-02T03:30:40.864Z,47.00
2018-03-02T03:31:41.105Z,46.50
2018-03-02T03:32:41.343Z,46.40
2018-03-02T03:33:41.584Z,49.40
2018-03-02T03:34:41.826Z,46.60
2018-03-02T03:35:42.066Z,47.50
2018-03-02T03:36:42.311Z,48.20
2018-03-02T03:37:42.553Z,47.60
2018-03-02T03:38:42.788Z,48.60
2018-03-02T03:39:43.044Z,46.90
2018-03-02T03:40:43.293Z,47.90
2018-03-02T03:41:43.526Z,48.80
2018-03-02T03:42:43.779Z,45.20
2018-03-02T03:43:44.023Z,45.00
2018-03-02T03:44:44.265Z,47.60
2018-03-02T03:45:44.502Z,49.20
2018-03-02T03:46:44.745Z,48.00
2018-03-02T03:47:44.985Z,45.70
2018-03-02T03:48:45.221Z,46.70
2018-03-02T03:49:45.463Z,52.00
2018-03-02T03:50:45.705Z,45.90
2018-03-02T03:51:45.949Z,48.40
2018-03-02T03:52:46.181Z,48.70
2018-03-02T03:53:46.423Z,53.20
2018-03-02T03:54:46.666Z,45.90
2018-03-02T03:55:46.906Z,47.90
2018-03-02T03:56:47.138Z,47.30
2018-03-02T03:57:47.379Z,46.20
2018-03-02T03:58:47.628Z,50.20
2018-03-02T03:59:47.868Z,48.40
2018-03-02T04:00:48.112Z,49.00
2018-03-02T04:01:48.349Z,48.10
2018-03-02T04:02:48.597Z,49.30
2018-03-02T04:03:48.824Z,49.80
2018-03-02T04:04:49.066Z,47.90
2018-03-02T04:05:49.315Z,50.10
2018-03-02T04:06:49.552Z,48.60
2018-03-02T04:07:49.795Z,48.40
2018-03-02T04:08:50.038Z,49.90
2018-03-02T04:09:50.280Z,49.40
2018-03-02T04:10:50.521Z,49.70
2018-03-02T04:11:50.772Z,52.70
2018-03-02T04:12:51.009Z,51.00
2018-03-02T04:13:51.249Z,48.10
2018-03-02T04:14:51.495Z,48.00
2018-03-02T04:15:51.741Z,48.40
2018-03-02T04:16:51.974Z,50.50
2018-03-02T04:17:52.218Z,49.50
2018-03-02T04:18:52.458Z,49.10
2018-03-02T04:19:52.707Z,47.80
2018-03-02T04:20:52.942Z,52.00
2018-03-02T04:21:53.183Z,51.20
2018-03-02T04:22:53.430Z,49.80
2018-03-02T04:23:53.671Z,46.30
2018-03-02T04:24:53.909Z,48.40
2018-03-02T04:25:54.150Z,48.60
2018-03-02T04:26:54.395Z,50.70
2018-03-02T04:27:54.631Z,49.50
2018-03-02T04:28:54.870Z,49.80
2018-03-02T04:29:55.108Z,50.70
2018-03-02T04:30:55.352Z,50.40
2018-03-02T04:31:55.583Z,51.80
2018-03-02T04:32:55.867Z,48.50
2018-03-02T04:33:56.099Z,46.70
2018-03-02T04:34:56.344Z,50.40
2018-03-02T04:35:56.581Z,54.30
2018-03-02T04:36:56.821Z,51.10
2018-03-02T04:37:57.094Z,51.10
2018-03-02T04:38:57.304Z,51.30
2018-03-02T04:39:57.542Z,51.60
2018-03-02T04:40:57.779Z,51.90
2018-03-02T04:41:58.025Z,52.10
2018-03-02T04:42:58.282Z,49.60
2018-03-02T04:43:58.514Z,49.80
2018-03-02T04:44:58.757Z,51.00
2018-03-02T04:45:58.999Z,51.60
2018-03-02T04:46:59.242Z,53.00
2018-03-02T04:47:59.487Z,51.90
2018-03-02T04:48:59.715Z,51.40
2018-03-02T04:49:59.981Z,48.70
2018-03-02T04:51:00.225Z,53.80
2018-03-02T04:52:00.464Z,54.30
2018-03-02T04:53:00.709Z,50.80
2018-03-02T04:54:00.954Z,52.40
2018-03-02T04:55:01.196Z,51.60
2018-03-02T04:56:01.441Z,52.60
2018-03-02T04:57:01.751Z,54.60
2018-03-02T04:58:01.915Z,50.00
2018-03-02T04:59:02.157Z,55.20
2018-03-02T05:00:02.398Z,52.80
2018-03-02T05:01:02.638Z,51.10
2018-03-02T05:02:02.882Z,51.00
2018-03-02T05:03:03.125Z,52.70
2018-03-02T05:04:03.363Z,49.30
2018-03-02T05:05:03.604Z,54.30
2018-03-02T05:06:03.853Z,49.20
2018-03-02T05:07:04.098Z,51.70
2018-03-02T05:08:04.338Z,52.40
2018-03-02T05:09:04.586Z,51.70
2018-03-02T05:10:04.839Z,53.50
2018-03-02T05:11:05.072Z,52.40
2018-03-02T05:12:05.315Z,56.60
2018-03-02T05:13:05.559Z,51.60
2018-03-02T05:14:05.798Z,51.00
2018-03-02T05:15:06.039Z,56.50
2018-03-02T05:16:06.281Z,51.80
2018-03-02T05:17:06.525Z,57.40
2018-03-02T05:18:06.768Z,52.80
2018-03-02T05:19:07.007Z,52.00
2018-03-02T05:20:07.249Z,53.50
2018-03-02T05:21:07.514Z,54.70
2018-03-02T05:22:07.737Z,52.00
2018-03-02T05:23:07.981Z,51.60
2018-03-02T05:24:08.222Z,52.30
2018-03-02T05:25:08.460Z,55.90
2018-03-02T05:26:08.707Z,55.60
2018-03-02T05:27:08.953Z,52.70
2018-03-02T05:28:09.192Z,55.60
2018-03-02T05:29:09.437Z,53.40
2018-03-02T05:30:09.686Z,52.70
2018-03-02T05:31:09.926Z,53.60
2018-03-02T05:32:10.170Z,54.90
2018-03-02T05:33:10.409Z,55.60
2018-03-02T05:34:10.650Z,52.70
2018-03-02T05:35:10.893Z,51.30
2018-03-02T05:36:11.130Z,54.00
2018-03-02T05:37:11.368Z,53.30
2018-03-02T05:38:11.608Z,54.30
2018-03-02T05:39:11.854Z,55.20
2018-03-02T05:40:12.098Z,54.80
2018-03-02T05:41:12.341Z,54.30
2018-03-02T05:42:12.582Z,57.80
2018-03-02T05:43:12.822Z,55.40
2018-03-02T05:44:13.067Z,57.20
2018-03-02T05:45:13.308Z,56.70
2018-03-02T05:46:13.550Z,54.60
2018-03-02T05:47:13.799Z,54.20
2018-03-02T05:48:14.040Z,54.50
2018-03-02T05:49:14.290Z,56.80
2018-03-02T05:50:14.529Z,52.40
2018-03-02T05:51:14.770Z,53.60
2018-03-02T05:52:15.012Z,54.20
2018-03-02T05:53:15.254Z,53.00
2018-03-02T05:54:15.501Z,54.40
2018-03-02T05:55:15.745Z,52.30
2018-03-02T05:56:15.993Z,54.40
2018-03-02T05:57:16.235Z,53.00
2018-03-02T05:58:16.476Z,55.10
2018-03-02T05:59:16.717Z,53.20
2018-03-02T06:00:16.964Z,50.80
2018-03-02T06:01:17.208Z,56.00
2018-03-02T06:02:17.446Z,54.90
2018-03-02T06:03:17.692Z,54.40
2018-03-02T06:04:17.930Z,51.50
2018-03-02T06:05:18.174Z,55.10
2018-03-02T06:06:18.425Z,55.50
2018-03-02T06:07:18.670Z,54.50
2018-03-02T06:08:18.899Z,55.50
2018-03-02T06:09:19.150Z,53.60
2018-03-02T06:10:19.398Z,54.20
2018-03-02T06:11:19.636Z,53.90
2018-03-02T06:12:19.874Z,55.70
2018-03-02T06:13:20.115Z,52.60
2018-03-02T06:14:20.369Z,53.60
2018-03-02T06:15:20.600Z,55.40
2018-03-02T06:16:20.848Z,54.80
2018-03-02T06:17:21.094Z,55.50
2018-03-02T06:18:21.339Z,56.60
2018-03-02T06:19:21.579Z,54.70
2018-03-02T06:20:21.831Z,53.60
2018-03-02T06:21:22.073Z,53.20
2018-03-02T06:22:22.319Z,54.80
2018-03-02T06:23:22.564Z,54.00
2018-03-02T06:24:22.810Z,52.70
2018-03-02T06:25:23.049Z,53.30
2018-03-02T06:26:23.289Z,56.50
2018-03-02T06:27:23.540Z,57.90
2018-03-02T06:28:23.783Z,54.20
2018-03-02T06:29:24.023Z,51.20
2018-03-02T06:30:24.264Z,54.30
2018-03-02T06:31:24.502Z,54.60
2018-03-02T06:32:24.745Z,51.60
2018-03-02T06:33:24.987Z,58.70
2018-03-02T06:34:25.228Z,54.80
2018-03-02T06:35:25.473Z,55.80
2018-03-02T06:36:25.716Z,53.90
2018-03-02T06:37:25.950Z,57.90
2018-03-02T06:38:26.203Z,53.50
2018-03-02T06:39:26.448Z,57.00
2018-03-02T06:40:26.695Z,55.00
2018-03-02T06:41:26.936Z,53.60
2018-03-02T06:42:27.176Z,54.40
2018-03-02T06:43:27.418Z,54.50
2018-03-02T06:44:27.666Z,54.20
2018-03-02T06:45:27.912Z,58.30
2018-03-02T06:46:28.149Z,55.20
2018-03-02T06:47:28.388Z,54.60
2018-03-02T06:48:28.632Z,54.00
2018-03-02T06:49:28.876Z,55.40
2018-03-02T06:50:29.119Z,55.30
2018-03-02T06:51:29.360Z,56.60
2018-03-02T06:52:29.604Z,54.30
2018-03-02T06:53:29.845Z,57.20
2018-03-02T06:54:30.092Z,55.00
2018-03-02T06:55:30.338Z,56.50
2018-03-02T06:56:30.583Z,54.80
2018-03-02T06:57:30.828Z,56.40
2018-03-02T06:58:31.070Z,52.60
2018-03-02T06:59:31.310Z,54.60
2018-03-02T07:00:31.553Z,54.40
2018-03-02T07:01:31.795Z,58.40
2018-03-02T07:02:32.087Z,55.60
2018-03-02T07:03:32.303Z,55.60
2018-03-02T07:04:32.563Z,59.60
2018-03-02T07:05:32.808Z,56.30
2018-03-02T07:06:33.060Z,55.90
2018-03-02T07:07:33.300Z,55.50
2018-03-02T07:08:33.547Z,54.60
2018-03-02T07:09:33.791Z,54.80
2018-03-02T07:10:34.033Z,55.90
2018-03-02T07:11:34.276Z,57.20
2018-03-02T07:12:34.519Z,59.00
2018-03-02T07:13:34.762Z,60.50
2018-03-02T07:14:35.010Z,60.00
2018-03-02T07:15:35.250Z,60.60
2018-03-02T07:16:35.490Z,58.90
2018-03-02T07:17:35.731Z,58.90
2018-03-02T07:18:35.974Z,60.20
2018-03-02T07:19:36.214Z,61.60
2018-03-02T07:20:36.477Z,57.90
2018-03-02T07:21:36.720Z,63.90
2018-03-02T07:22:36.964Z,59.70
2018-03-02T07:23:37.214Z,59.20
2018-03-02T07:24:37.457Z,57.40
2018-03-02T07:25:37.698Z,60.50
2018-03-02T07:26:37.946Z,56.00
2018-03-02T07:27:38.193Z,57.10
2018-03-02T07:28:38.438Z,62.80
2018-03-02T07:29:38.680Z,59.20
2018-03-02T07:30:38.920Z,62.90
2018-03-02T07:31:39.168Z,61.30
2018-03-02T07:32:39.410Z,58.90
2018-03-02T07:33:39.652Z,58.00
2018-03-02T07:34:39.901Z,58.80
2018-03-02T07:35:40.134Z,61.80
2018-03-02T07:36:40.404Z,55.40
2018-03-02T07:37:40.646Z,58.00
2018-03-02T07:38:40.895Z,57.20
2018-03-02T07:39:41.140Z,54.90
2018-03-02T07:40:41.387Z,57.00
2018-03-02T07:41:41.632Z,58.00
2018-03-02T07:42:41.870Z,60.10
2018-03-02T07:43:42.113Z,59.70
2018-03-02T07:44:42.350Z,57.30
2018-03-02T07:45:42.586Z,62.60
2018-03-02T07:46:42.831Z,59.00
2018-03-02T07:47:43.075Z,59.90
2018-03-02T07:48:43.318Z,56.50
2018-03-02T07:49:43.565Z,56.80
2018-03-02T07:50:43.805Z,58.70
2018-03-02T07:51:44.042Z,59.20
2018-03-02T07:52:44.280Z,57.00
2018-03-02T07:53:44.529Z,58.70
2018-03-02T07:54:44.772Z,58.60
2018-03-02T07:55:45.016Z,56.50
2018-03-02T07:56:45.258Z,56.60
2018-03-02T07:57:45.502Z,57.70
2018-03-02T07:58:45.776Z,55.10
2018-03-02T07:59:45.981Z,56.00
2018-03-02T08:00:46.222Z,57.90
2018-03-02T08:01:46.469Z,55.30
2018-03-02T08:02:46.710Z,57.80
2018-03-02T08:03:46.953Z,56.50
2018-03-02T08:04:47.199Z,58.10
2018-03-02T08:05:47.452Z,56.30
2018-03-02T08:06:47.690Z,56.10
2018-03-02T08:07:47.933Z,53.60
2018-03-02T08:08:48.179Z,56.40
2018-03-02T08:09:48.482Z,56.70
2018-03-02T08:10:48.679Z,54.80
2018-03-02T08:11:48.923Z,52.70
2018-03-02T08:12:49.165Z,60.60
2018-03-02T08:13:49.415Z,59.00
2018-03-02T08:14:49.663Z,56.30
2018-03-02T08:15:49.907Z,56.00
2018-03-02T08:16:50.148Z,59.30
2018-03-02T08:17:50.394Z,56.60
2018-03-02T08:18:50.651Z,57.60
2018-03-02T08:19:50.894Z,57.80
2018-03-02T08:20:51.143Z,60.80
2018-03-02T08:21:51.388Z,57.00
2018-03-02T08:22:51.631Z,57.10
2018-03-02T08:23:51.869Z,57.40
2018-03-02T08:24:52.115Z,55.80
2018-03-02T08:25:52.359Z,58.20
2018-03-02T08:26:52.604Z,57.00
2018-03-02T08:27:52.854Z,56.40
2018-03-02T08:28:53.098Z,57.80
2018-03-02T08:29:53.339Z,54.30
2018-03-02T08:30:53.583Z,54.40
2018-03-02T08:31:53.836Z,56.10
2018-03-02T08:32:54.072Z,54.00
2018-03-02T08:33:54.317Z,57.10
2018-03-02T08:34:54.558Z,57.40
2018-03-02T08:35:54.806Z,55.80
2018-03-02T08:36:55.053Z,57.60
2018-03-02T08:37:55.293Z,58.40
2018-03-02T08:38:55.535Z,60.30
2018-03-02T08:39:55.785Z,54.50
2018-03-02T08:40:56.029Z,80.60
2018-03-02T08:41:56.275Z,69.80
2018-03-02T08:42:56.543Z,75.80
2018-03-02T08:43:56.758Z,58.30
2018-03-02T08:44:57.006Z,72.40
2018-03-02T08:45:57.251Z,60.80
2018-03-02T08:46:57.496Z,62.60
2018-03-02T08:47:57.747Z,68.10
2018-03-02T08:48:57.988Z,78.60
2018-03-02T08:49:58.232Z,61.40
2018-03-02T08:50:58.476Z,60.70
2018-03-02T08:51:58.718Z,56.10
2018-03-02T08:52:58.965Z,55.70
2018-03-02T08:53:59.206Z,60.50
2018-03-02T08:54:59.454Z,54.70
2018-03-02T08:55:59.697Z,61.40
2018-03-02T08:56:59.942Z,56.70
2018-03-02T08:58:00.192Z,57.80
2018-03-02T08:59:00.443Z,57.70
2018-03-02T09:00:00.692Z,55.60
2018-03-02T09:01:00.933Z,58.00
2018-03-02T09:02:01.180Z,56.50
2018-03-02T09:03:01.437Z,57.30
2018-03-02T09:04:01.672Z,55.80
2018-03-02T09:05:01.916Z,56.80
2018-03-02T09:06:02.158Z,55.90
2018-03-02T09:07:02.409Z,52.90
2018-03-02T09:08:02.653Z,56.40
2018-03-02T09:09:02.900Z,56.10
2018-03-02T09:10:03.150Z,58.10
2018-03-02T09:11:03.388Z,56.50
2018-03-02T09:12:03.632Z,55.80
2018-03-02T09:13:03.909Z,54.90
2018-03-02T09:14:04.114Z,56.40
2018-03-02T09:15:04.359Z,58.90
2018-03-02T09:16:04.606Z,55.90
2018-03-02T09:17:04.851Z,60.50
2018-03-02T09:18:05.097Z,56.30
2018-03-02T09:19:05.343Z,57.60
2018-03-02T09:20:05.582Z,54.30
2018-03-02T09:21:05.825Z,56.80
2018-03-02T09:22:06.076Z,55.40
2018-03-02T09:23:06.322Z,55.80
2018-03-02T09:24:06.568Z,58.30
2018-03-02T09:25:06.810Z,53.90
2018-03-02T09:26:07.062Z,54.20
2018-03-02T09:27:07.309Z,56.70
2018-03-02T09:28:07.561Z,54.10
2018-03-02T09:29:07.788Z,55.00
2018-03-02T09:30:08.069Z,58.70
2018-03-02T09:31:08.299Z,57.00
2018-03-02T09:32:08.541Z,54.00
2018-03-02T09:33:08.784Z,58.40
2018-03-02T09:34:09.031Z,55.00
2018-03-02T09:35:09.272Z,56.00
2018-03-02T09:36:09.533Z,57.90
2018-03-02T09:37:09.774Z,55.60
2018-03-02T09:38:10.015Z,56.30
2018-03-02T09:39:10.260Z,55.90
2018-03-02T09:40:10.501Z,56.60
2018-03-02T09:41:10.748Z,55.60
2018-03-02T09:42:10.999Z,59.50
2018-03-02T09:43:11.238Z,58.80
2018-03-02T09:44:11.483Z,58.90
2018-03-02T09:45:11.726Z,60.00
2018-03-02T09:46:11.980Z,58.00
2018-03-02T09:47:12.228Z,59.70
2018-03-02T09:48:12.473Z,59.10
2018-03-02T09:49:12.719Z,56.20
2018-03-02T09:50:12.965Z,54.20
2018-03-02T09:51:13.223Z,59.30
2018-03-02T09:52:13.469Z,62.60
2018-03-02T09:53:13.732Z,54.50
2018-03-02T09:54:13.979Z,57.90
2018-03-02T09:55:14.227Z,56.20
2018-03-02T09:56:14.472Z,54.60
2018-03-02T09:57:14.721Z,57.10
2018-03-02T09:58:14.970Z,56.20
2018-03-02T09:59:15.220Z,59.20
2018-03-02T10:00:15.467Z,53.80
2018-03-02T10:01:15.708Z,58.20
2018-03-02T10:02:15.956Z,59.70
2018-03-02T10:03:16.201Z,58.70
2018-03-02T10:04:16.446Z,60.20
2018-03-02T10:05:16.701Z,57.90
2018-03-02T10:06:16.946Z,56.20
2018-03-02T10:07:17.196Z,56.90
2018-03-02T10:08:17.444Z,58.40
2018-03-02T10:09:17.696Z,58.70
2018-03-02T10:10:18.529Z,62.00
2018-03-02T10:11:18.315Z,61.40
2018-03-02T10:12:18.566Z,56.70
2018-03-02T10:13:18.820Z,55.50
2018-03-02T10:14:19.068Z,55.40
2018-03-02T10:15:19.317Z,58.10
2018-03-02T10:16:19.566Z,58.30
2018-03-02T10:17:19.825Z,55.40
2018-03-02T10:18:20.064Z,57.10
2018-03-02T10:19:20.313Z,54.30
2018-03-02T10:20:20.562Z,61.20
2018-03-02T10:21:20.799Z,60.20
2018-03-02T10:22:21.065Z,55.70
2018-03-02T10:23:21.383Z,55.60
2018-03-02T10:24:21.581Z,52.70
2018-03-02T10:25:21.830Z,56.90
2018-03-02T10:26:22.085Z,55.10
2018-03-02T10:27:22.335Z,57.30
2018-03-02T10:28:22.586Z,57.70
2018-03-02T10:29:22.832Z,60.00
2018-03-02T10:30:23.084Z,59.10
2018-03-02T10:31:23.956Z,55.70
2018-03-02T10:32:23.613Z,59.30
2018-03-02T10:33:23.865Z,57.10
2018-03-02T10:34:24.099Z,53.50
2018-03-02T10:35:24.367Z,54.50
2018-03-02T10:36:24.620Z,59.10
2018-03-02T10:37:24.866Z,55.40
2018-03-02T10:38:25.120Z,55.40
2018-03-02T10:39:25.376Z,57.80
2018-03-02T10:40:25.621Z,54.60
2018-03-02T10:41:25.869Z,55.20
2018-03-02T10:42:26.118Z,54.60
2018-03-02T10:45:58.690Z,57.00
2018-03-02T10:46:58.932Z,57.60
2018-03-02T10:47:59.183Z,54.30
2018-03-02T10:48:59.425Z,56.80
2018-03-02T10:49:59.664Z,57.20
2018-03-02T10:50:59.917Z,58.10
2018-03-02T10:52:00.162Z,58.60
2018-03-02T10:53:00.408Z,57.20
2018-03-02T10:54:00.653Z,59.80
2018-03-02T10:55:00.898Z,56.00
2018-03-02T10:56:01.143Z,56.00
2018-03-02T10:57:01.393Z,53.00
2018-03-02T10:58:01.640Z,59.60
2018-03-02T10:59:01.886Z,59.00
2018-03-02T11:00:02.130Z,56.60
2018-03-02T11:01:02.375Z,58.10
2018-03-02T11:02:02.623Z,56.70
2018-03-02T11:03:02.863Z,53.60
2018-03-02T11:04:03.115Z,56.10
2018-03-02T11:05:03.362Z,51.80
2018-03-02T11:06:03.612Z,54.60
2018-03-02T11:07:03.857Z,59.30
2018-03-02T11:08:04.121Z,56.90
2018-03-02T11:09:04.356Z,58.30
2018-03-02T11:10:04.599Z,57.50
2018-03-02T11:11:04.846Z,59.40
2018-03-02T11:12:05.093Z,61.40
2018-03-02T11:13:05.340Z,72.90
2018-03-02T11:14:05.591Z,74.90
2018-03-02T11:15:05.840Z,56.10
2018-03-02T11:16:06.092Z,59.70
2018-03-02T11:17:06.333Z,88.70
2018-03-02T11:18:06.577Z,57.70
2018-03-02T11:19:06.829Z,56.50
2018-03-02T11:20:07.073Z,59.70
2018-03-02T11:21:07.319Z,59.20
2018-03-02T11:22:07.567Z,55.70
2018-03-02T11:23:07.808Z,54.50
2018-03-02T11:24:08.052Z,54.90
2018-03-02T11:25:08.298Z,52.60
2018-03-02T11:26:08.546Z,51.00
2018-03-02T11:27:08.796Z,53.70
2018-03-02T11:28:09.042Z,58.60
2018-03-02T11:29:09.290Z,56.80
2018-03-02T11:30:09.537Z,51.30
2018-03-02T11:31:09.796Z,52.20
2018-03-02T11:32:10.038Z,56.50
2018-03-02T11:33:10.257Z,56.80
2018-03-02T11:34:10.499Z,55.10
2018-03-02T11:35:10.751Z,53.30
2018-03-02T11:36:10.994Z,55.00
2018-03-02T11:37:11.250Z,55.30
2018-03-02T11:38:11.488Z,53.70
2018-03-02T11:39:11.740Z,53.50
2018-03-02T11:40:11.990Z,53.50
2018-03-02T11:41:12.244Z,54.20
2018-03-02T11:42:12.488Z,56.30
2018-03-02T11:43:12.734Z,54.80
2018-03-02T11:44:12.978Z,55.50
2018-03-02T11:45:13.227Z,57.50
2018-03-02T11:46:13.473Z,54.20
2018-03-02T11:47:13.726Z,53.00
2018-03-02T11:48:13.967Z,55.80
2018-03-02T11:49:14.217Z,55.00
2018-03-02T11:50:14.476Z,49.60
2018-03-02T11:51:14.762Z,53.40
2018-03-02T11:52:14.983Z,55.00
2018-03-02T11:53:15.229Z,52.90
2018-03-02T11:54:15.471Z,54.70
2018-03-02T11:55:15.716Z,55.60
2018-03-02T11:56:15.985Z,54.50
2018-03-02T11:57:16.222Z,52.10
2018-03-02T11:58:16.479Z,53.20
2018-03-02T11:59:16.707Z,54.10
2018-03-02T12:00:16.963Z,51.70
2018-03-02T12:01:17.211Z,55.70
2018-03-02T12:02:17.458Z,53.90
2018-03-02T12:03:17.710Z,51.40
2018-03-02T12:04:17.956Z,53.20
2018-03-02T12:05:18.208Z,53.90
2018-03-02T12:06:18.467Z,51.70
2018-03-02T12:07:18.701Z,52.60
2018-03-02T12:08:18.934Z,53.70
2018-03-02T12:09:19.187Z,52.00
2018-03-02T12:10:19.455Z,56.20
2018-03-02T12:11:19.686Z,50.50
2018-03-02T12:12:19.927Z,51.50
2018-03-02T12:13:20.194Z,53.10
2018-03-02T12:14:20.404Z,53.50
2018-03-02T12:15:20.665Z,51.90
2018-03-02T12:16:20.893Z,53.70
2018-03-02T12:17:21.135Z,52.90
2018-03-02T12:18:21.376Z,55.10
2018-03-02T12:19:21.627Z,49.10
2018-03-02T12:20:21.872Z,49.60
2018-03-02T12:21:22.125Z,54.00
2018-03-02T12:22:22.371Z,52.30
2018-03-02T12:23:22.617Z,48.60
2018-03-02T12:24:22.874Z,49.10
2018-03-02T12:25:23.102Z,49.70
2018-03-02T12:26:23.347Z,48.50
2018-03-02T12:27:23.714Z,50.40
2018-03-02T12:28:23.870Z,51.00
2018-03-02T12:29:24.113Z,51.50
2018-03-02T12:30:24.380Z,49.50
2018-03-02T12:31:24.660Z,48.20
2018-03-02T12:32:24.860Z,53.40
2018-03-02T12:33:25.104Z,50.90
2018-03-02T12:34:25.435Z,50.90
2018-03-02T12:35:25.566Z,53.90
2018-03-02T12:36:25.799Z,47.60
2018-03-02T12:37:26.054Z,51.10
2018-03-02T12:38:26.278Z,53.00
2018-03-02T12:39:26.524Z,52.40
2018-03-02T12:40:26.761Z,50.70
2018-03-02T12:41:27.002Z,50.70
2018-03-02T12:42:27.308Z,52.60
2018-03-02T12:43:27.567Z,50.10
2018-03-02T12:44:27.790Z,51.00
2018-03-02T12:45:28.002Z,51.60
2018-03-02T12:46:28.304Z,54.90
2018-03-02T12:47:28.488Z,48.70
2018-03-02T12:48:28.757Z,51.10
2018-03-02T12:49:28.984Z,49.40
2018-03-02T12:50:29.229Z,47.50
2018-03-02T12:51:29.476Z,48.50
2018-03-02T12:52:29.711Z,51.00
2018-03-02T12:53:29.954Z,49.90
2018-03-02T12:54:30.262Z,50.80
2018-03-02T12:55:30.430Z,49.10
2018-03-02T12:56:30.680Z,48.90
2018-03-02T12:57:30.915Z,50.20
2018-03-02T12:58:31.157Z,49.00
2018-03-02T12:59:31.419Z,50.10
2018-03-02T13:00:31.719Z,50.60
2018-03-02T13:01:31.914Z,49.40
2018-03-02T13:02:32.165Z,47.80
2018-03-02T13:03:32.408Z,49.50
2018-03-02T13:04:32.862Z,56.50
2018-03-02T13:05:32.934Z,51.40
2018-03-02T13:06:33.183Z,51.80
2018-03-02T13:07:33.436Z,48.60